Airfield :
LOGIN :

Register | Disclaimer

   EN    FR    IT 

 










Legend :    VFR   Marginal VFR   IFR   Intensive IFR   Very Intensive IFR
Visi :
Ceiling :
>= 8 km
>= 3000ft
5 to 8 km
1000 to 3000 ft
1500m to 5 km
500 to 1000 ft
800 to 1500m
200 to 500 ft
< 800m
< 200 ft
Symbols :   Thunderstorms  Fog  Heavy snow  Heavy precipitations  Wind > 20 kt
SIGMETs :     Misc.  Thunderstorms  Icing  Turbulence  Mountain Waves  Volcanic Ashes






- Airport Elevation : 598 ft
- IATA code : BQH


EGKB - Biggin Hill

CURRENT METAR :
  • 182020Z 29004KT CAVOK 02/00 Q1033

EXPIRED METARs :
  • 181950Z 30005KT CAVOK 02/00 Q1033
  • 181920Z 30005KT CAVOK 03/00 Q1032
  • 181850Z 32004KT CAVOK 03/00 Q1032
  • 181820Z 32004KT CAVOK 03/00 Q1031
  • 181750Z 31005KT CAVOK 03/00 Q1031

TAF TAF EGKB
Valid from the 18 at 18:00 until the 18 at 22:00 UTC


181658Z 1818/1822 31007KT 9999 FEW030
PROB30 1820/1822 8000



MET'MAP, your aeronautical weather chart ! - Copyright ORBIFLY December 2007 - Disclaimer

ORBIFLY MET'MAP TEAM :

Programming & Development : Alexandra Zaïnal
Concept & original design : Baudouin d'Aumeries
Assistance for programming : Marc-Olivier Méhu
Technical & hardware support : Manuel Goepfert

Contact : metmap@orbifly.com




SOURCES & CREDITS :

   NOAA